Elko Regional Airport

Airport
ICAO code: 
KEKO
Summary
ICAO Region: 
NAM
Territory: 
Location: 
Elko, Nevada,
Elevation: 
5140 ft
Coordinates: 
Aerial View: 
40° 49' 27.527" N, 115° 47' 29.547" W
Airport CFIT: 
Altimeter Temperature Error Correction
Airport RE: 
Hot and High Operations
Airport WX: 
Cumulonimbus
Metar
Observation
KEKO 040656Z AUTO 08006KT 10SM CLR M03/M08 A3022 RMK AO2 SLP246 T10281078
Station
Elko, Elko Regional Airport
Date/Time
2021-12-04 06:56:00
Wind direction
80°
Wind speed
06 kts
Lowest cloud amount
n/a
Temperature
-2.8°C
Dew point
-7.8°C
Humidity
68%
Weather condition
n/a

Description

Elko Regional Airport, formerly Elko Municipal Airport, is a public airport located 1.6 km west of Elko, in Elko County, Nevada.

Climatology

Semi-arid climate (Köppen climate classification BSk). - Hot, sometimes extremely hot summers and cool, sometimes cold winters. Some snowfall during the winter. Areas featuring semi-arid climates are sometimes subject to major temperature swings during a 24 hour period.

Very little rainfall but thunderstorms can occur at all times of the year. Occasional dust storms.

Runways

Designator Length Width Surface Rops
12/30 875 18 ASP Yes/Yes
5/23 2199 46 ASP Yes/Yes
Airport map: 
Aerial View: 

SKYbrary Partners:

Safety knowledge contributed by: